sensor_id;sensor_type;location;lat;lon;timestamp;P1;durP1;ratioP1;P2;durP2;ratioP2
4616;SDS011;2321;42.704;23.384;2022-09-09T00:00:26;4.40;;;4.00;;
4616;SDS011;2321;42.704;23.384;2022-09-09T00:03:02;5.63;;;5.13;;
4616;SDS011;2321;42.704;23.384;2022-09-09T00:05:38;5.57;;;5.00;;
4616;SDS011;2321;42.704;23.384;2022-09-09T00:08:12;4.90;;;4.50;;
4616;SDS011;2321;42.704;23.384;2022-09-09T00:10:45;5.80;;;4.77;;
4616;SDS011;2321;42.704;23.384;2022-09-09T00:13:22;5.07;;;4.67;;
4616;SDS011;2321;42.704;23.384;2022-09-09T00:15:56;5.60;;;5.20;;
4616;SDS011;2321;42.704;23.384;2022-09-09T00:18:28;4.90;;;4.50;;
4616;SDS011;2321;42.704;23.384;2022-09-09T00:21:04;5.00;;;4.57;;
4616;SDS011;2321;42.704;23.384;2022-09-09T00:23:34;5.03;;;4.50;;
4616;SDS011;2321;42.704;23.384;2022-09-09T00:26:05;5.40;;;4.90;;
4616;SDS011;2321;42.704;23.384;2022-09-09T00:28:41;6.70;;;4.57;;
4616;SDS011;2321;42.704;23.384;2022-09-09T00:31:18;8.67;;;4.60;;
4616;SDS011;2321;42.704;23.384;2022-09-09T00:33:51;4.27;;;3.70;;
4616;SDS011;2321;42.704;23.384;2022-09-09T00:36:21;4.40;;;4.10;;
4616;SDS011;2321;42.704;23.384;2022-09-09T00:38:52;6.40;;;4.43;;
4616;SDS011;2321;42.704;23.384;2022-09-09T00:41:22;6.43;;;5.20;;
4616;SDS011;2321;42.704;23.384;2022-09-09T00:44:06;4.47;;;4.17;;
4616;SDS011;2321;42.704;23.384;2022-09-09T00:46:50;5.50;;;4.40;;
4616;SDS011;2321;42.704;23.384;2022-09-09T00:49:31;5.33;;;4.67;;
4616;SDS011;2321;42.704;23.384;2022-09-09T00:52:13;12.97;;;6.43;;
4616;SDS011;2321;42.704;23.384;2022-09-09T00:54:53;5.10;;;4.70;;
4616;SDS011;2321;42.704;23.384;2022-09-09T00:57:30;5.33;;;4.83;;
4616;SDS011;2321;42.704;23.384;2022-09-09T01:00:00;5.63;;;4.90;;
4616;SDS011;2321;42.704;23.384;2022-09-09T01:02:45;4.37;;;4.07;;
4616;SDS011;2321;42.704;23.384;2022-09-09T01:05:22;5.60;;;4.87;;
4616;SDS011;2321;42.704;23.384;2022-09-09T01:07:53;6.83;;;4.30;;
4616;SDS011;2321;42.704;23.384;2022-09-09T01:10:22;7.63;;;5.50;;
4616;SDS011;2321;42.704;23.384;2022-09-09T01:13:00;5.43;;;4.93;;
4616;SDS011;2321;42.704;23.384;2022-09-09T01:15:36;6.33;;;4.63;;
4616;SDS011;2321;42.704;23.384;2022-09-09T01:18:05;5.67;;;4.97;;
4616;SDS011;2321;42.704;23.384;2022-09-09T01:20:39;4.70;;;4.40;;
4616;SDS011;2321;42.704;23.384;2022-09-09T01:23:19;4.50;;;4.20;;
4616;SDS011;2321;42.704;23.384;2022-09-09T01:26:14;6.90;;;5.13;;
4616;SDS011;2321;42.704;23.384;2022-09-09T01:28:46;4.60;;;4.27;;
4616;SDS011;2321;42.704;23.384;2022-09-09T01:31:17;7.60;;;5.63;;
4616;SDS011;2321;42.704;23.384;2022-09-09T01:33:45;5.23;;;4.83;;
4616;SDS011;2321;42.704;23.384;2022-09-09T01:36:13;4.97;;;4.33;;
4616;SDS011;2321;42.704;23.384;2022-09-09T01:38:51;6.47;;;5.67;;
4616;SDS011;2321;42.704;23.384;2022-09-09T01:41:20;5.67;;;5.10;;
4616;SDS011;2321;42.704;23.384;2022-09-09T01:43:48;5.83;;;5.23;;
4616;SDS011;2321;42.704;23.384;2022-09-09T01:46:15;5.53;;;5.03;;
4616;SDS011;2321;42.704;23.384;2022-09-09T01:48:43;6.73;;;5.53;;
4616;SDS011;2321;42.704;23.384;2022-09-09T01:51:11;5.13;;;4.63;;
4616;SDS011;2321;42.704;23.384;2022-09-09T01:53:38;13.13;;;6.07;;
4616;SDS011;2321;42.704;23.384;2022-09-09T01:56:10;5.70;;;5.17;;
4616;SDS011;2321;42.704;23.384;2022-09-09T01:58:51;5.27;;;4.77;;
4616;SDS011;2321;42.704;23.384;2022-09-09T02:01:28;8.90;;;5.73;;
4616;SDS011;2321;42.704;23.384;2022-09-09T02:04:08;9.03;;;5.80;;
4616;SDS011;2321;42.704;23.384;2022-09-09T02:06:44;5.87;;;5.37;;
4616;SDS011;2321;42.704;23.384;2022-09-09T02:09:14;5.63;;;5.07;;
4616;SDS011;2321;42.704;23.384;2022-09-09T02:11:48;6.30;;;5.70;;
4616;SDS011;2321;42.704;23.384;2022-09-09T02:14:21;8.20;;;5.43;;
4616;SDS011;2321;42.704;23.384;2022-09-09T02:16:53;8.20;;;5.70;;
4616;SDS011;2321;42.704;23.384;2022-09-09T02:19:25;6.90;;;5.17;;
4616;SDS011;2321;42.704;23.384;2022-09-09T02:21:57;6.90;;;5.70;;
4616;SDS011;2321;42.704;23.384;2022-09-09T02:24:27;5.23;;;4.77;;
4616;SDS011;2321;42.704;23.384;2022-09-09T02:26:58;4.90;;;4.37;;
4616;SDS011;2321;42.704;23.384;2022-09-09T02:29:30;8.40;;;5.90;;
4616;SDS011;2321;42.704;23.384;2022-09-09T02:32:01;6.10;;;5.50;;
4616;SDS011;2321;42.704;23.384;2022-09-09T02:34:32;5.33;;;4.90;;
4616;SDS011;2321;42.704;23.384;2022-09-09T02:37:02;5.27;;;4.77;;
4616;SDS011;2321;42.704;23.384;2022-09-09T02:39:30;8.33;;;5.40;;
4616;SDS011;2321;42.704;23.384;2022-09-09T02:41:57;4.93;;;4.43;;
4616;SDS011;2321;42.704;23.384;2022-09-09T02:44:24;6.67;;;5.33;;
4616;SDS011;2321;42.704;23.384;2022-09-09T02:47:00;7.20;;;4.73;;
4616;SDS011;2321;42.704;23.384;2022-09-09T02:49:40;11.27;;;6.40;;
4616;SDS011;2321;42.704;23.384;2022-09-09T02:52:16;5.97;;;5.37;;
4616;SDS011;2321;42.704;23.384;2022-09-09T02:54:48;8.27;;;4.80;;
4616;SDS011;2321;42.704;23.384;2022-09-09T02:57:21;7.70;;;6.50;;
4616;SDS011;2321;42.704;23.384;2022-09-09T02:59:52;6.87;;;5.77;;
4616;SDS011;2321;42.704;23.384;2022-09-09T03:02:24;5.93;;;5.23;;
4616;SDS011;2321;42.704;23.384;2022-09-09T03:04:51;8.33;;;6.33;;
4616;SDS011;2321;42.704;23.384;2022-09-09T03:07:18;8.43;;;5.53;;
4616;SDS011;2321;42.704;23.384;2022-09-09T03:09:46;6.23;;;5.30;;
4616;SDS011;2321;42.704;23.384;2022-09-09T03:12:13;6.50;;;5.80;;
4616;SDS011;2321;42.704;23.384;2022-09-09T03:14:40;5.93;;;5.43;;
4616;SDS011;2321;42.704;23.384;2022-09-09T03:17:09;6.50;;;5.60;;
4616;SDS011;2321;42.704;23.384;2022-09-09T03:19:37;6.07;;;5.47;;
4616;SDS011;2321;42.704;23.384;2022-09-09T03:22:05;7.07;;;5.87;;
4616;SDS011;2321;42.704;23.384;2022-09-09T03:24:31;5.53;;;5.07;;
4616;SDS011;2321;42.704;23.384;2022-09-09T03:26:58;6.00;;;5.50;;
4616;SDS011;2321;42.704;23.384;2022-09-09T03:29:25;8.23;;;6.13;;
4616;SDS011;2321;42.704;23.384;2022-09-09T03:31:52;6.53;;;5.07;;
4616;SDS011;2321;42.704;23.384;2022-09-09T03:34:19;7.57;;;6.67;;
4616;SDS011;2321;42.704;23.384;2022-09-09T03:36:48;9.30;;;6.40;;
4616;SDS011;2321;42.704;23.384;2022-09-09T03:39:15;7.17;;;6.00;;
4616;SDS011;2321;42.704;23.384;2022-09-09T03:41:42;6.10;;;5.50;;
4616;SDS011;2321;42.704;23.384;2022-09-09T03:44:11;8.03;;;6.00;;
4616;SDS011;2321;42.704;23.384;2022-09-09T03:46:38;9.00;;;6.30;;
4616;SDS011;2321;42.704;23.384;2022-09-09T03:49:05;6.30;;;5.70;;
4616;SDS011;2321;42.704;23.384;2022-09-09T03:51:32;7.50;;;6.27;;
4616;SDS011;2321;42.704;23.384;2022-09-09T03:54:03;6.73;;;6.07;;
4616;SDS011;2321;42.704;23.384;2022-09-09T03:56:33;16.37;;;8.77;;
4616;SDS011;2321;42.704;23.384;2022-09-09T03:59:00;7.63;;;6.83;;
4616;SDS011;2321;42.704;23.384;2022-09-09T04:01:27;9.13;;;6.50;;
4616;SDS011;2321;42.704;23.384;2022-09-09T04:03:55;5.77;;;5.23;;
4616;SDS011;2321;42.704;23.384;2022-09-09T04:06:23;12.30;;;6.97;;
4616;SDS011;2321;42.704;23.384;2022-09-09T04:08:51;7.23;;;6.27;;
4616;SDS011;2321;42.704;23.384;2022-09-09T04:11:19;8.53;;;5.30;;
4616;SDS011;2321;42.704;23.384;2022-09-09T04:13:47;7.63;;;5.83;;
4616;SDS011;2321;42.704;23.384;2022-09-09T04:16:14;6.70;;;5.83;;
4616;SDS011;2321;42.704;23.384;2022-09-09T04:18:41;9.40;;;6.20;;
4616;SDS011;2321;42.704;23.384;2022-09-09T04:21:09;8.20;;;7.20;;
4616;SDS011;2321;42.704;23.384;2022-09-09T04:23:37;11.57;;;7.47;;
4616;SDS011;2321;42.704;23.384;2022-09-09T04:26:05;34.17;;;8.10;;
4616;SDS011;2321;42.704;23.384;2022-09-09T04:28:34;11.43;;;6.73;;
4616;SDS011;2321;42.704;23.384;2022-09-09T04:31:06;13.30;;;8.43;;
4616;SDS011;2321;42.704;23.384;2022-09-09T04:33:34;10.93;;;7.10;;
4616;SDS011;2321;42.704;23.384;2022-09-09T04:36:03;10.93;;;7.10;;
4616;SDS011;2321;42.704;23.384;2022-09-09T04:38:31;12.00;;;6.77;;
4616;SDS011;2321;42.704;23.384;2022-09-09T04:40:58;10.37;;;6.00;;
4616;SDS011;2321;42.704;23.384;2022-09-09T04:43:25;7.83;;;6.33;;
4616;SDS011;2321;42.704;23.384;2022-09-09T04:45:53;7.00;;;6.30;;
4616;SDS011;2321;42.704;23.384;2022-09-09T04:48:20;11.57;;;6.90;;
4616;SDS011;2321;42.704;23.384;2022-09-09T04:50:54;9.73;;;6.80;;
4616;SDS011;2321;42.704;23.384;2022-09-09T04:53:22;11.47;;;7.40;;
4616;SDS011;2321;42.704;23.384;2022-09-09T04:55:50;38.70;;;7.40;;
4616;SDS011;2321;42.704;23.384;2022-09-09T04:58:18;7.93;;;6.40;;
4616;SDS011;2321;42.704;23.384;2022-09-09T05:00:46;7.67;;;6.80;;
4616;SDS011;2321;42.704;23.384;2022-09-09T05:03:15;9.67;;;7.00;;
4616;SDS011;2321;42.704;23.384;2022-09-09T05:05:42;10.53;;;6.77;;
4616;SDS011;2321;42.704;23.384;2022-09-09T05:08:09;11.50;;;6.30;;
4616;SDS011;2321;42.704;23.384;2022-09-09T05:10:37;7.50;;;6.37;;
4616;SDS011;2321;42.704;23.384;2022-09-09T05:13:07;13.10;;;7.30;;
4616;SDS011;2321;42.704;23.384;2022-09-09T05:15:34;21.97;;;6.17;;
4616;SDS011;2321;42.704;23.384;2022-09-09T05:18:01;6.60;;;5.93;;
4616;SDS011;2321;42.704;23.384;2022-09-09T05:20:30;5.07;;;4.60;;
4616;SDS011;2321;42.704;23.384;2022-09-09T05:22:57;11.73;;;6.20;;
4616;SDS011;2321;42.704;23.384;2022-09-09T05:25:24;6.50;;;5.80;;
4616;SDS011;2321;42.704;23.384;2022-09-09T05:27:51;9.90;;;5.50;;
4616;SDS011;2321;42.704;23.384;2022-09-09T05:30:20;6.40;;;5.80;;
4616;SDS011;2321;42.704;23.384;2022-09-09T05:32:48;8.80;;;6.80;;
4616;SDS011;2321;42.704;23.384;2022-09-09T05:35:15;8.47;;;7.03;;
4616;SDS011;2321;42.704;23.384;2022-09-09T05:37:45;6.00;;;5.50;;
4616;SDS011;2321;42.704;23.384;2022-09-09T05:40:13;15.73;;;6.10;;
4616;SDS011;2321;42.704;23.384;2022-09-09T05:42:40;11.43;;;5.63;;
4616;SDS011;2321;42.704;23.384;2022-09-09T05:45:07;5.90;;;5.20;;
4616;SDS011;2321;42.704;23.384;2022-09-09T05:47:35;8.00;;;5.30;;
4616;SDS011;2321;42.704;23.384;2022-09-09T05:50:03;10.17;;;5.30;;
4616;SDS011;2321;42.704;23.384;2022-09-09T05:52:30;5.40;;;4.30;;
4616;SDS011;2321;42.704;23.384;2022-09-09T05:54:59;3.60;;;3.40;;
4616;SDS011;2321;42.704;23.384;2022-09-09T05:57:26;7.53;;;4.00;;
4616;SDS011;2321;42.704;23.384;2022-09-09T05:59:53;4.27;;;3.53;;
4616;SDS011;2321;42.704;23.384;2022-09-09T06:02:20;8.13;;;4.00;;
4616;SDS011;2321;42.704;23.384;2022-09-09T06:04:47;3.63;;;3.40;;
4616;SDS011;2321;42.704;23.384;2022-09-09T06:07:14;5.13;;;4.00;;
4616;SDS011;2321;42.704;23.384;2022-09-09T06:09:41;3.87;;;3.57;;
4616;SDS011;2321;42.704;23.384;2022-09-09T06:12:10;4.10;;;3.80;;
4616;SDS011;2321;42.704;23.384;2022-09-09T06:14:37;8.37;;;3.93;;
4616;SDS011;2321;42.704;23.384;2022-09-09T06:17:04;4.30;;;3.90;;
4616;SDS011;2321;42.704;23.384;2022-09-09T06:19:31;4.70;;;3.70;;
4616;SDS011;2321;42.704;23.384;2022-09-09T06:21:58;3.77;;;3.50;;
4616;SDS011;2321;42.704;23.384;2022-09-09T06:24:25;4.57;;;4.17;;
4616;SDS011;2321;42.704;23.384;2022-09-09T06:26:53;4.33;;;3.93;;
4616;SDS011;2321;42.704;23.384;2022-09-09T06:29:21;4.27;;;3.30;;
4616;SDS011;2321;42.704;23.384;2022-09-09T06:31:48;4.17;;;3.77;;
4616;SDS011;2321;42.704;23.384;2022-09-09T06:34:15;4.87;;;3.17;;
4616;SDS011;2321;42.704;23.384;2022-09-09T06:36:42;6.03;;;3.40;;
4616;SDS011;2321;42.704;23.384;2022-09-09T06:39:11;3.43;;;2.93;;
4616;SDS011;2321;42.704;23.384;2022-09-09T06:41:39;2.80;;;2.70;;
4616;SDS011;2321;42.704;23.384;2022-09-09T06:44:06;3.60;;;3.30;;
4616;SDS011;2321;42.704;23.384;2022-09-09T06:46:34;7.07;;;3.90;;
4616;SDS011;2321;42.704;23.384;2022-09-09T06:49:01;3.90;;;3.57;;
4616;SDS011;2321;42.704;23.384;2022-09-09T06:51:29;3.43;;;3.23;;
4616;SDS011;2321;42.704;23.384;2022-09-09T06:53:57;3.70;;;3.40;;
4616;SDS011;2321;42.704;23.384;2022-09-09T06:56:27;3.50;;;3.30;;
4616;SDS011;2321;42.704;23.384;2022-09-09T06:58:56;2.97;;;2.87;;
4616;SDS011;2321;42.704;23.384;2022-09-09T07:01:26;3.53;;;3.33;;
4616;SDS011;2321;42.704;23.384;2022-09-09T07:03:57;4.53;;;3.50;;
4616;SDS011;2321;42.704;23.384;2022-09-09T07:06:25;8.23;;;3.20;;
4616;SDS011;2321;42.704;23.384;2022-09-09T07:08:54;3.60;;;3.20;;
4616;SDS011;2321;42.704;23.384;2022-09-09T07:11:24;2.87;;;2.67;;
4616;SDS011;2321;42.704;23.384;2022-09-09T07:13:53;4.70;;;3.37;;
4616;SDS011;2321;42.704;23.384;2022-09-09T07:16:23;4.10;;;3.70;;
4616;SDS011;2321;42.704;23.384;2022-09-09T07:18:51;10.37;;;3.00;;
4616;SDS011;2321;42.704;23.384;2022-09-09T07:21:22;3.47;;;3.27;;
4616;SDS011;2321;42.704;23.384;2022-09-09T07:23:49;3.70;;;3.27;;
4616;SDS011;2321;42.704;23.384;2022-09-09T07:26:17;3.70;;;2.80;;
4616;SDS011;2321;42.704;23.384;2022-09-09T07:28:46;3.17;;;2.97;;
4616;SDS011;2321;42.704;23.384;2022-09-09T07:31:14;5.70;;;3.57;;
4616;SDS011;2321;42.704;23.384;2022-09-09T07:33:42;3.10;;;2.90;;
4616;SDS011;2321;42.704;23.384;2022-09-09T07:36:12;4.57;;;4.20;;
4616;SDS011;2321;42.704;23.384;2022-09-09T07:38:42;3.67;;;3.30;;
4616;SDS011;2321;42.704;23.384;2022-09-09T07:41:11;5.17;;;3.50;;
4616;SDS011;2321;42.704;23.384;2022-09-09T07:43:39;3.63;;;3.33;;
4616;SDS011;2321;42.704;23.384;2022-09-09T07:46:07;6.73;;;3.60;;
4616;SDS011;2321;42.704;23.384;2022-09-09T07:48:35;3.43;;;3.13;;
4616;SDS011;2321;42.704;23.384;2022-09-09T07:51:06;3.33;;;3.23;;
4616;SDS011;2321;42.704;23.384;2022-09-09T07:53:35;3.83;;;3.20;;
4616;SDS011;2321;42.704;23.384;2022-09-09T07:56:05;3.27;;;3.07;;
4616;SDS011;2321;42.704;23.384;2022-09-09T07:58:34;4.40;;;3.73;;
4616;SDS011;2321;42.704;23.384;2022-09-09T08:01:05;3.53;;;3.33;;
4616;SDS011;2321;42.704;23.384;2022-09-09T08:03:34;6.23;;;3.97;;
4616;SDS011;2321;42.704;23.384;2022-09-09T08:06:01;2.93;;;2.73;;
4616;SDS011;2321;42.704;23.384;2022-09-09T08:08:29;3.67;;;3.37;;
4616;SDS011;2321;42.704;23.384;2022-09-09T08:11:05;3.03;;;2.80;;
4616;SDS011;2321;42.704;23.384;2022-09-09T08:13:34;3.27;;;3.00;;
4616;SDS011;2321;42.704;23.384;2022-09-09T08:16:05;3.30;;;3.00;;
4616;SDS011;2321;42.704;23.384;2022-09-09T08:18:34;3.83;;;3.40;;
4616;SDS011;2321;42.704;23.384;2022-09-09T08:21:08;5.37;;;3.50;;
4616;SDS011;2321;42.704;23.384;2022-09-09T08:23:37;8.03;;;3.87;;
4616;SDS011;2321;42.704;23.384;2022-09-09T08:26:09;3.63;;;3.00;;
4616;SDS011;2321;42.704;23.384;2022-09-09T08:28:39;3.10;;;2.90;;
4616;SDS011;2321;42.704;23.384;2022-09-09T08:31:07;2.80;;;2.70;;
4616;SDS011;2321;42.704;23.384;2022-09-09T08:33:35;3.83;;;3.47;;
4616;SDS011;2321;42.704;23.384;2022-09-09T08:36:04;7.23;;;3.90;;
4616;SDS011;2321;42.704;23.384;2022-09-09T08:38:32;3.80;;;3.50;;
4616;SDS011;2321;42.704;23.384;2022-09-09T08:41:03;3.80;;;3.60;;
4616;SDS011;2321;42.704;23.384;2022-09-09T08:43:49;8.80;;;4.40;;
4616;SDS011;2321;42.704;23.384;2022-09-09T08:46:25;9.63;;;3.23;;
4616;SDS011;2321;42.704;23.384;2022-09-09T08:49:00;7.33;;;3.27;;
4616;SDS011;2321;42.704;23.384;2022-09-09T08:51:33;3.50;;;3.30;;
4616;SDS011;2321;42.704;23.384;2022-09-09T08:54:02;3.30;;;3.20;;
4616;SDS011;2321;42.704;23.384;2022-09-09T08:56:30;3.37;;;3.17;;
4616;SDS011;2321;42.704;23.384;2022-09-09T08:59:00;4.00;;;3.60;;
4616;SDS011;2321;42.704;23.384;2022-09-09T09:01:41;6.97;;;3.60;;
4616;SDS011;2321;42.704;23.384;2022-09-09T09:04:21;6.17;;;2.90;;
4616;SDS011;2321;42.704;23.384;2022-09-09T09:07:02;4.10;;;3.70;;
4616;SDS011;2321;42.704;23.384;2022-09-09T09:09:40;9.17;;;4.17;;
4616;SDS011;2321;42.704;23.384;2022-09-09T09:12:15;3.27;;;3.07;;
4616;SDS011;2321;42.704;23.384;2022-09-09T09:14:47;4.80;;;2.87;;
4616;SDS011;2321;42.704;23.384;2022-09-09T09:17:15;4.23;;;3.83;;
4616;SDS011;2321;42.704;23.384;2022-09-09T09:19:46;4.13;;;3.73;;
4616;SDS011;2321;42.704;23.384;2022-09-09T09:22:16;7.40;;;3.17;;
4616;SDS011;2321;42.704;23.384;2022-09-09T09:24:50;3.00;;;2.90;;
4616;SDS011;2321;42.704;23.384;2022-09-09T09:27:21;3.00;;;2.80;;
4616;SDS011;2321;42.704;23.384;2022-09-09T09:29:59;5.50;;;4.10;;
4616;SDS011;2321;42.704;23.384;2022-09-09T09:32:30;11.07;;;3.43;;
4616;SDS011;2321;42.704;23.384;2022-09-09T09:35:00;10.17;;;4.87;;
4616;SDS011;2321;42.704;23.384;2022-09-09T09:37:33;9.00;;;4.00;;
4616;SDS011;2321;42.704;23.384;2022-09-09T09:40:07;3.50;;;3.30;;
4616;SDS011;2321;42.704;23.384;2022-09-09T09:42:35;4.43;;;3.90;;
4616;SDS011;2321;42.704;23.384;2022-09-09T09:45:16;6.03;;;3.90;;
4616;SDS011;2321;42.704;23.384;2022-09-09T09:47:57;4.27;;;3.40;;
4616;SDS011;2321;42.704;23.384;2022-09-09T09:50:25;4.27;;;3.97;;
4616;SDS011;2321;42.704;23.384;2022-09-09T09:52:55;6.20;;;4.50;;
4616;SDS011;2321;42.704;23.384;2022-09-09T09:55:24;3.30;;;3.20;;
4616;SDS011;2321;42.704;23.384;2022-09-09T09:57:52;3.67;;;3.47;;
4616;SDS011;2321;42.704;23.384;2022-09-09T10:00:22;3.50;;;3.20;;
4616;SDS011;2321;42.704;23.384;2022-09-09T10:02:49;3.50;;;3.20;;
4616;SDS011;2321;42.704;23.384;2022-09-09T10:05:19;4.40;;;3.50;;
4616;SDS011;2321;42.704;23.384;2022-09-09T10:07:59;4.23;;;3.50;;
4616;SDS011;2321;42.704;23.384;2022-09-09T10:10:32;4.53;;;4.13;;
4616;SDS011;2321;42.704;23.384;2022-09-09T10:13:08;3.47;;;3.27;;
4616;SDS011;2321;42.704;23.384;2022-09-09T10:15:43;5.10;;;4.40;;
4616;SDS011;2321;42.704;23.384;2022-09-09T10:18:25;5.03;;;3.87;;
4616;SDS011;2321;42.704;23.384;2022-09-09T10:21:12;6.80;;;3.37;;
4616;SDS011;2321;42.704;23.384;2022-09-09T10:23:57;6.60;;;3.43;;
4616;SDS011;2321;42.704;23.384;2022-09-09T10:26:39;6.23;;;3.47;;
4616;SDS011;2321;42.704;23.384;2022-09-09T10:29:24;3.60;;;3.40;;
4616;SDS011;2321;42.704;23.384;2022-09-09T10:32:03;4.17;;;3.67;;
4616;SDS011;2321;42.704;23.384;2022-09-09T10:34:47;6.43;;;3.40;;
4616;SDS011;2321;42.704;23.384;2022-09-09T10:37:26;5.60;;;3.57;;
4616;SDS011;2321;42.704;23.384;2022-09-09T10:40:18;4.93;;;4.40;;
4616;SDS011;2321;42.704;23.384;2022-09-09T10:42:55;6.20;;;3.90;;
4616;SDS011;2321;42.704;23.384;2022-09-09T10:45:32;5.93;;;4.27;;
4616;SDS011;2321;42.704;23.384;2022-09-09T10:48:25;6.20;;;3.73;;
4616;SDS011;2321;42.704;23.384;2022-09-09T10:51:00;6.80;;;4.30;;
4616;SDS011;2321;42.704;23.384;2022-09-09T10:53:44;4.97;;;3.40;;
4616;SDS011;2321;42.704;23.384;2022-09-09T10:56:19;3.93;;;3.73;;
4616;SDS011;2321;42.704;23.384;2022-09-09T10:58:51;15.13;;;3.40;;
4616;SDS011;2321;42.704;23.384;2022-09-09T11:01:24;4.00;;;3.70;;
4616;SDS011;2321;42.704;23.384;2022-09-09T11:03:56;11.73;;;5.73;;
4616;SDS011;2321;42.704;23.384;2022-09-09T11:06:29;3.77;;;3.47;;
4616;SDS011;2321;42.704;23.384;2022-09-09T11:09:02;4.10;;;3.80;;
4616;SDS011;2321;42.704;23.384;2022-09-09T11:11:32;4.60;;;3.67;;
4616;SDS011;2321;42.704;23.384;2022-09-09T11:14:05;4.40;;;4.00;;
4616;SDS011;2321;42.704;23.384;2022-09-09T11:16:39;4.17;;;3.83;;
4616;SDS011;2321;42.704;23.384;2022-09-09T11:19:14;5.17;;;4.77;;
4616;SDS011;2321;42.704;23.384;2022-09-09T11:21:46;6.93;;;4.80;;
4616;SDS011;2321;42.704;23.384;2022-09-09T11:24:18;16.00;;;4.23;;
4616;SDS011;2321;42.704;23.384;2022-09-09T11:26:51;8.20;;;4.17;;
4616;SDS011;2321;42.704;23.384;2022-09-09T11:29:28;8.53;;;5.43;;
4616;SDS011;2321;42.704;23.384;2022-09-09T11:32:12;13.10;;;4.27;;
4616;SDS011;2321;42.704;23.384;2022-09-09T11:34:56;4.77;;;3.93;;
4616;SDS011;2321;42.704;23.384;2022-09-09T11:37:53;5.10;;;4.60;;
4616;SDS011;2321;42.704;23.384;2022-09-09T11:40:45;9.00;;;4.90;;
4616;SDS011;2321;42.704;23.384;2022-09-09T11:43:14;6.10;;;5.23;;
4616;SDS011;2321;42.704;23.384;2022-09-09T11:45:50;8.43;;;6.37;;
4616;SDS011;2321;42.704;23.384;2022-09-09T11:48:23;5.57;;;4.80;;
4616;SDS011;2321;42.704;23.384;2022-09-09T11:50:59;11.53;;;4.60;;
4616;SDS011;2321;42.704;23.384;2022-09-09T11:53:32;5.93;;;5.30;;
4616;SDS011;2321;42.704;23.384;2022-09-09T11:56:04;7.07;;;5.43;;
4616;SDS011;2321;42.704;23.384;2022-09-09T11:58:38;5.50;;;4.60;;
4616;SDS011;2321;42.704;23.384;2022-09-09T12:01:27;5.47;;;4.97;;
4616;SDS011;2321;42.704;23.384;2022-09-09T12:04:16;9.27;;;4.37;;
4616;SDS011;2321;42.704;23.384;2022-09-09T12:06:56;5.10;;;3.20;;
4616;SDS011;2321;42.704;23.384;2022-09-09T12:09:32;21.30;;;5.43;;
4616;SDS011;2321;42.704;23.384;2022-09-09T12:12:21;7.53;;;5.43;;
4616;SDS011;2321;42.704;23.384;2022-09-09T12:17:46;4.80;;;4.40;;
4616;SDS011;2321;42.704;23.384;2022-09-09T12:20:15;18.57;;;4.83;;
4616;SDS011;2321;42.704;23.384;2022-09-09T12:22:49;5.97;;;4.90;;
4616;SDS011;2321;42.704;23.384;2022-09-09T12:25:27;20.53;;;5.10;;
4616;SDS011;2321;42.704;23.384;2022-09-09T12:28:02;6.30;;;5.70;;
4616;SDS011;2321;42.704;23.384;2022-09-09T12:30:37;4.97;;;4.50;;
4616;SDS011;2321;42.704;23.384;2022-09-09T12:33:12;6.67;;;4.40;;
4616;SDS011;2321;42.704;23.384;2022-09-09T12:35:44;12.17;;;5.50;;
4616;SDS011;2321;42.704;23.384;2022-09-09T12:38:19;5.53;;;5.00;;
4616;SDS011;2321;42.704;23.384;2022-09-09T12:40:55;5.23;;;4.57;;
4616;SDS011;2321;42.704;23.384;2022-09-09T12:43:24;13.23;;;4.77;;
4616;SDS011;2321;42.704;23.384;2022-09-09T12:45:53;5.33;;;4.83;;
4616;SDS011;2321;42.704;23.384;2022-09-09T12:48:26;5.77;;;4.97;;
4616;SDS011;2321;42.704;23.384;2022-09-09T12:50:57;7.00;;;4.90;;
4616;SDS011;2321;42.704;23.384;2022-09-09T12:53:28;8.80;;;5.33;;
4616;SDS011;2321;42.704;23.384;2022-09-09T12:55:59;11.77;;;5.33;;
4616;SDS011;2321;42.704;23.384;2022-09-09T12:58:28;8.83;;;4.30;;
4616;SDS011;2321;42.704;23.384;2022-09-09T13:00:58;6.37;;;5.17;;
4616;SDS011;2321;42.704;23.384;2022-09-09T13:03:26;10.93;;;5.00;;
4616;SDS011;2321;42.704;23.384;2022-09-09T13:05:54;5.30;;;4.90;;
4616;SDS011;2321;42.704;23.384;2022-09-09T13:08:26;5.37;;;4.90;;
4616;SDS011;2321;42.704;23.384;2022-09-09T13:10:54;5.13;;;4.73;;
4616;SDS011;2321;42.704;23.384;2022-09-09T13:13:28;5.77;;;5.30;;
4616;SDS011;2321;42.704;23.384;2022-09-09T13:16:01;7.80;;;4.90;;
4616;SDS011;2321;42.704;23.384;2022-09-09T13:18:30;9.40;;;5.83;;
4616;SDS011;2321;42.704;23.384;2022-09-09T13:20:58;6.97;;;5.30;;
4616;SDS011;2321;42.704;23.384;2022-09-09T13:23:28;8.77;;;6.03;;
4616;SDS011;2321;42.704;23.384;2022-09-09T13:25:58;5.00;;;4.50;;
4616;SDS011;2321;42.704;23.384;2022-09-09T13:28:27;5.90;;;5.40;;
4616;SDS011;2321;42.704;23.384;2022-09-09T13:30:56;6.70;;;5.13;;
4616;SDS011;2321;42.704;23.384;2022-09-09T13:33:29;5.50;;;5.03;;
4616;SDS011;2321;42.704;23.384;2022-09-09T13:35:58;6.93;;;5.33;;
4616;SDS011;2321;42.704;23.384;2022-09-09T13:38:31;5.33;;;4.63;;
4616;SDS011;2321;42.704;23.384;2022-09-09T13:41:01;6.10;;;5.50;;
4616;SDS011;2321;42.704;23.384;2022-09-09T13:43:30;9.87;;;5.00;;
4616;SDS011;2321;42.704;23.384;2022-09-09T13:46:01;12.43;;;5.00;;
4616;SDS011;2321;42.704;23.384;2022-09-09T13:48:53;6.10;;;4.43;;
4616;SDS011;2321;42.704;23.384;2022-09-09T13:51:25;6.10;;;5.43;;
4616;SDS011;2321;42.704;23.384;2022-09-09T13:53:58;8.47;;;6.20;;
4616;SDS011;2321;42.704;23.384;2022-09-09T13:56:25;5.90;;;5.30;;
4616;SDS011;2321;42.704;23.384;2022-09-09T13:58:53;7.50;;;5.00;;
4616;SDS011;2321;42.704;23.384;2022-09-09T14:01:20;4.93;;;4.53;;
4616;SDS011;2321;42.704;23.384;2022-09-09T14:03:48;9.90;;;5.37;;
4616;SDS011;2321;42.704;23.384;2022-09-09T14:06:15;5.77;;;5.27;;
4616;SDS011;2321;42.704;23.384;2022-09-09T14:08:44;6.13;;;4.90;;
4616;SDS011;2321;42.704;23.384;2022-09-09T14:11:13;7.37;;;5.80;;
4616;SDS011;2321;42.704;23.384;2022-09-09T14:13:40;7.20;;;4.90;;
4616;SDS011;2321;42.704;23.384;2022-09-09T14:16:07;9.53;;;4.93;;
4616;SDS011;2321;42.704;23.384;2022-09-09T14:18:34;7.60;;;4.93;;
4616;SDS011;2321;42.704;23.384;2022-09-09T14:21:03;9.50;;;4.80;;
4616;SDS011;2321;42.704;23.384;2022-09-09T14:23:30;15.13;;;6.27;;
4616;SDS011;2321;42.704;23.384;2022-09-09T14:25:57;5.30;;;4.80;;
4616;SDS011;2321;42.704;23.384;2022-09-09T14:28:25;10.10;;;4.80;;
4616;SDS011;2321;42.704;23.384;2022-09-09T14:30:53;5.33;;;4.77;;
4616;SDS011;2321;42.704;23.384;2022-09-09T14:33:20;6.87;;;4.70;;
4616;SDS011;2321;42.704;23.384;2022-09-09T14:35:47;8.20;;;4.90;;
4616;SDS011;2321;42.704;23.384;2022-09-09T14:38:14;31.60;;;5.30;;
4616;SDS011;2321;42.704;23.384;2022-09-09T14:40:44;5.73;;;5.23;;
4616;SDS011;2321;42.704;23.384;2022-09-09T14:43:12;7.63;;;4.47;;
4616;SDS011;2321;42.704;23.384;2022-09-09T14:45:40;5.37;;;4.80;;
4616;SDS011;2321;42.704;23.384;2022-09-09T14:48:08;32.23;;;4.27;;
4616;SDS011;2321;42.704;23.384;2022-09-09T14:50:35;5.10;;;4.37;;
4616;SDS011;2321;42.704;23.384;2022-09-09T14:53:05;6.13;;;4.70;;
4616;SDS011;2321;42.704;23.384;2022-09-09T14:55:32;6.93;;;4.53;;
4616;SDS011;2321;42.704;23.384;2022-09-09T14:57:59;4.90;;;4.40;;
4616;SDS011;2321;42.704;23.384;2022-09-09T15:00:26;4.67;;;4.13;;
4616;SDS011;2321;42.704;23.384;2022-09-09T15:02:54;4.97;;;4.47;;
4616;SDS011;2321;42.704;23.384;2022-09-09T15:05:22;4.77;;;4.10;;
4616;SDS011;2321;42.704;23.384;2022-09-09T15:07:49;4.00;;;3.70;;
4616;SDS011;2321;42.704;23.384;2022-09-09T15:10:16;5.83;;;5.33;;
4616;SDS011;2321;42.704;23.384;2022-09-09T15:12:43;13.47;;;4.23;;
4616;SDS011;2321;42.704;23.384;2022-09-09T15:15:10;5.87;;;3.90;;
4616;SDS011;2321;42.704;23.384;2022-09-09T15:17:37;4.43;;;3.60;;
4616;SDS011;2321;42.704;23.384;2022-09-09T15:20:06;4.20;;;3.90;;
4616;SDS011;2321;42.704;23.384;2022-09-09T15:22:34;4.60;;;3.97;;
4616;SDS011;2321;42.704;23.384;2022-09-09T15:25:03;4.10;;;3.80;;
4616;SDS011;2321;42.704;23.384;2022-09-09T15:27:30;7.43;;;3.57;;